sensor_id;sensor_type;location;lat;lon;timestamp;P1;durP1;ratioP1;P2;durP2;ratioP2
15110;SDS011;7656;51.954;7.998;2023-07-29T00:03:03;2.20;;;2.00;;
15110;SDS011;7656;51.954;7.998;2023-07-29T00:07:24;1.83;;;1.73;;
15110;SDS011;7656;51.954;7.998;2023-07-29T00:11:45;2.00;;;1.90;;
15110;SDS011;7656;51.954;7.998;2023-07-29T00:16:06;2.45;;;2.17;;
15110;SDS011;7656;51.954;7.998;2023-07-29T00:20:27;2.17;;;1.80;;
15110;SDS011;7656;51.954;7.998;2023-07-29T00:24:52;2.40;;;1.92;;
15110;SDS011;7656;51.954;7.998;2023-07-29T00:29:15;2.10;;;2.00;;
15110;SDS011;7656;51.954;7.998;2023-07-29T00:33:36;1.73;;;1.63;;
15110;SDS011;7656;51.954;7.998;2023-07-29T00:37:57;2.08;;;1.90;;
15110;SDS011;7656;51.954;7.998;2023-07-29T00:42:18;3.25;;;1.98;;
15110;SDS011;7656;51.954;7.998;2023-07-29T00:46:39;2.50;;;2.20;;
15110;SDS011;7656;51.954;7.998;2023-07-29T00:51:02;2.10;;;2.00;;
15110;SDS011;7656;51.954;7.998;2023-07-29T00:55:23;2.50;;;1.80;;
15110;SDS011;7656;51.954;7.998;2023-07-29T00:59:45;1.80;;;1.70;;
15110;SDS011;7656;51.954;7.998;2023-07-29T01:04:06;1.80;;;1.70;;
15110;SDS011;7656;51.954;7.998;2023-07-29T01:08:37;2.08;;;1.88;;
15110;SDS011;7656;51.954;7.998;2023-07-29T01:18:15;2.42;;;1.98;;
15110;SDS011;7656;51.954;7.998;2023-07-29T01:22:46;2.30;;;2.10;;
15110;SDS011;7656;51.954;7.998;2023-07-29T01:27:08;2.45;;;2.25;;
15110;SDS011;7656;51.954;7.998;2023-07-29T01:31:33;3.83;;;2.23;;
15110;SDS011;7656;51.954;7.998;2023-07-29T01:36:01;4.40;;;2.33;;
15110;SDS011;7656;51.954;7.998;2023-07-29T01:40:29;2.28;;;2.08;;
15110;SDS011;7656;51.954;7.998;2023-07-29T01:44:50;4.35;;;2.55;;
15110;SDS011;7656;51.954;7.998;2023-07-29T01:49:12;2.33;;;2.15;;
15110;SDS011;7656;51.954;7.998;2023-07-29T01:53:33;2.70;;;2.50;;
15110;SDS011;7656;51.954;7.998;2023-07-29T01:57:55;2.50;;;2.30;;
15110;SDS011;7656;51.954;7.998;2023-07-29T02:02:17;2.53;;;2.25;;
15110;SDS011;7656;51.954;7.998;2023-07-29T02:06:38;2.33;;;2.13;;
15110;SDS011;7656;51.954;7.998;2023-07-29T02:10:59;2.90;;;2.70;;
15110;SDS011;7656;51.954;7.998;2023-07-29T02:15:20;4.13;;;2.38;;
15110;SDS011;7656;51.954;7.998;2023-07-29T02:19:41;3.13;;;2.20;;
15110;SDS011;7656;51.954;7.998;2023-07-29T02:24:03;3.10;;;2.70;;
15110;SDS011;7656;51.954;7.998;2023-07-29T02:28:24;2.97;;;2.60;;
15110;SDS011;7656;51.954;7.998;2023-07-29T02:32:45;2.95;;;2.70;;
15110;SDS011;7656;51.954;7.998;2023-07-29T02:37:07;4.53;;;2.63;;
15110;SDS011;7656;51.954;7.998;2023-07-29T02:41:28;2.85;;;2.55;;
15110;SDS011;7656;51.954;7.998;2023-07-29T02:45:49;3.43;;;2.60;;
15110;SDS011;7656;51.954;7.998;2023-07-29T02:50:10;3.23;;;2.97;;
15110;SDS011;7656;51.954;7.998;2023-07-29T02:54:31;3.27;;;2.97;;
15110;SDS011;7656;51.954;7.998;2023-07-29T02:58:53;3.10;;;2.90;;
15110;SDS011;7656;51.954;7.998;2023-07-29T03:03:14;2.87;;;2.67;;
15110;SDS011;7656;51.954;7.998;2023-07-29T03:07:35;3.57;;;2.57;;
15110;SDS011;7656;51.954;7.998;2023-07-29T03:11:56;3.10;;;2.67;;
15110;SDS011;7656;51.954;7.998;2023-07-29T03:16:17;3.20;;;2.97;;
15110;SDS011;7656;51.954;7.998;2023-07-29T03:20:48;3.43;;;3.13;;
15110;SDS011;7656;51.954;7.998;2023-07-29T03:25:10;3.80;;;3.50;;
15110;SDS011;7656;51.954;7.998;2023-07-29T03:29:31;4.43;;;3.30;;
15110;SDS011;7656;51.954;7.998;2023-07-29T03:33:52;3.43;;;3.10;;
15110;SDS011;7656;51.954;7.998;2023-07-29T03:38:13;3.07;;;2.47;;
15110;SDS011;7656;51.954;7.998;2023-07-29T03:42:34;3.13;;;2.90;;
15110;SDS011;7656;51.954;7.998;2023-07-29T03:46:56;3.40;;;3.05;;
15110;SDS011;7656;51.954;7.998;2023-07-29T03:51:17;2.90;;;2.70;;
15110;SDS011;7656;51.954;7.998;2023-07-29T03:55:38;2.92;;;2.70;;
15110;SDS011;7656;51.954;7.998;2023-07-29T04:00:00;3.08;;;2.70;;
15110;SDS011;7656;51.954;7.998;2023-07-29T04:04:21;3.27;;;3.07;;
15110;SDS011;7656;51.954;7.998;2023-07-29T04:08:42;3.28;;;2.70;;
15110;SDS011;7656;51.954;7.998;2023-07-29T04:13:03;4.07;;;2.73;;
15110;SDS011;7656;51.954;7.998;2023-07-29T04:17:24;2.92;;;2.67;;
15110;SDS011;7656;51.954;7.998;2023-07-29T04:21:45;3.10;;;2.70;;
15110;SDS011;7656;51.954;7.998;2023-07-29T04:26:06;3.13;;;2.60;;
15110;SDS011;7656;51.954;7.998;2023-07-29T04:30:27;3.33;;;2.88;;
15110;SDS011;7656;51.954;7.998;2023-07-29T04:34:49;2.58;;;2.38;;
15110;SDS011;7656;51.954;7.998;2023-07-29T04:39:10;2.40;;;2.30;;
15110;SDS011;7656;51.954;7.998;2023-07-29T04:43:31;2.58;;;2.38;;
15110;SDS011;7656;51.954;7.998;2023-07-29T04:47:53;2.83;;;2.63;;
15110;SDS011;7656;51.954;7.998;2023-07-29T04:52:14;3.70;;;2.70;;
15110;SDS011;7656;51.954;7.998;2023-07-29T04:56:35;3.40;;;3.10;;
15110;SDS011;7656;51.954;7.998;2023-07-29T05:00:56;3.75;;;2.80;;
15110;SDS011;7656;51.954;7.998;2023-07-29T05:05:17;2.78;;;2.58;;
15110;SDS011;7656;51.954;7.998;2023-07-29T05:09:39;4.32;;;3.17;;
15110;SDS011;7656;51.954;7.998;2023-07-29T05:14:00;2.88;;;2.67;;
15110;SDS011;7656;51.954;7.998;2023-07-29T05:18:23;4.25;;;3.53;;
15110;SDS011;7656;51.954;7.998;2023-07-29T05:22:44;3.03;;;2.70;;
15110;SDS011;7656;51.954;7.998;2023-07-29T05:27:05;3.00;;;2.80;;
15110;SDS011;7656;51.954;7.998;2023-07-29T05:31:28;2.80;;;2.60;;
15110;SDS011;7656;51.954;7.998;2023-07-29T05:35:50;3.15;;;2.95;;
15110;SDS011;7656;51.954;7.998;2023-07-29T05:40:11;4.30;;;3.10;;
15110;SDS011;7656;51.954;7.998;2023-07-29T05:44:33;3.30;;;3.00;;
15110;SDS011;7656;51.954;7.998;2023-07-29T05:48:54;3.20;;;2.90;;
15110;SDS011;7656;51.954;7.998;2023-07-29T05:53:15;3.78;;;3.08;;
15110;SDS011;7656;51.954;7.998;2023-07-29T05:57:36;3.33;;;3.03;;
15110;SDS011;7656;51.954;7.998;2023-07-29T06:02:00;2.80;;;2.60;;
15110;SDS011;7656;51.954;7.998;2023-07-29T06:06:21;4.25;;;3.65;;
15110;SDS011;7656;51.954;7.998;2023-07-29T06:10:44;4.43;;;4.03;;
15110;SDS011;7656;51.954;7.998;2023-07-29T06:15:05;4.82;;;4.10;;
15110;SDS011;7656;51.954;7.998;2023-07-29T06:19:26;5.35;;;4.70;;
15110;SDS011;7656;51.954;7.998;2023-07-29T06:23:47;4.95;;;4.50;;
15110;SDS011;7656;51.954;7.998;2023-07-29T06:28:09;5.55;;;4.95;;
15110;SDS011;7656;51.954;7.998;2023-07-29T06:32:31;6.00;;;5.18;;
15110;SDS011;7656;51.954;7.998;2023-07-29T06:36:52;5.88;;;5.38;;
15110;SDS011;7656;51.954;7.998;2023-07-29T06:41:13;6.65;;;5.82;;
15110;SDS011;7656;51.954;7.998;2023-07-29T06:45:34;5.90;;;5.30;;
15110;SDS011;7656;51.954;7.998;2023-07-29T06:49:55;5.28;;;4.65;;
15110;SDS011;7656;51.954;7.998;2023-07-29T06:54:16;5.25;;;4.70;;
15110;SDS011;7656;51.954;7.998;2023-07-29T06:58:38;4.88;;;4.38;;
15110;SDS011;7656;51.954;7.998;2023-07-29T07:02:59;5.20;;;4.70;;
15110;SDS011;7656;51.954;7.998;2023-07-29T07:07:20;5.20;;;4.72;;
15110;SDS011;7656;51.954;7.998;2023-07-29T07:11:41;5.13;;;4.63;;
15110;SDS011;7656;51.954;7.998;2023-07-29T07:16:02;5.13;;;4.43;;
15110;SDS011;7656;51.954;7.998;2023-07-29T07:20:23;5.90;;;5.40;;
15110;SDS011;7656;51.954;7.998;2023-07-29T07:24:44;5.57;;;5.00;;
15110;SDS011;7656;51.954;7.998;2023-07-29T07:29:05;4.68;;;4.28;;
15110;SDS011;7656;51.954;7.998;2023-07-29T07:33:26;4.80;;;4.30;;
15110;SDS011;7656;51.954;7.998;2023-07-29T07:37:47;3.90;;;3.55;;
15110;SDS011;7656;51.954;7.998;2023-07-29T07:42:08;3.63;;;3.33;;
15110;SDS011;7656;51.954;7.998;2023-07-29T07:46:29;3.90;;;3.60;;
15110;SDS011;7656;51.954;7.998;2023-07-29T07:50:50;2.65;;;2.45;;
15110;SDS011;7656;51.954;7.998;2023-07-29T07:55:11;7.45;;;2.13;;
15110;SDS011;7656;51.954;7.998;2023-07-29T07:59:32;2.30;;;2.10;;
15110;SDS011;7656;51.954;7.998;2023-07-29T08:03:53;1.80;;;1.70;;
15110;SDS011;7656;51.954;7.998;2023-07-29T08:08:14;2.58;;;1.90;;
15110;SDS011;7656;51.954;7.998;2023-07-29T08:12:36;1.60;;;1.08;;
15110;SDS011;7656;51.954;7.998;2023-07-29T08:16:57;2.58;;;1.13;;
15110;SDS011;7656;51.954;7.998;2023-07-29T08:21:18;3.83;;;1.10;;
15110;SDS011;7656;51.954;7.998;2023-07-29T08:25:39;2.33;;;1.50;;
15110;SDS011;7656;51.954;7.998;2023-07-29T08:30:00;1.20;;;1.20;;
15110;SDS011;7656;51.954;7.998;2023-07-29T08:34:21;1.35;;;1.33;;
15110;SDS011;7656;51.954;7.998;2023-07-29T08:38:42;1.15;;;1.15;;
15110;SDS011;7656;51.954;7.998;2023-07-29T08:43:04;1.30;;;1.30;;
15110;SDS011;7656;51.954;7.998;2023-07-29T08:47:28;0.93;;;0.90;;
15110;SDS011;7656;51.954;7.998;2023-07-29T08:51:50;1.27;;;1.27;;
15110;SDS011;7656;51.954;7.998;2023-07-29T08:56:14;1.58;;;1.48;;
15110;SDS011;7656;51.954;7.998;2023-07-29T09:00:36;0.98;;;0.98;;
15110;SDS011;7656;51.954;7.998;2023-07-29T09:04:57;1.42;;;1.23;;
15110;SDS011;7656;51.954;7.998;2023-07-29T09:09:18;1.08;;;1.08;;
15110;SDS011;7656;51.954;7.998;2023-07-29T09:13:41;1.05;;;1.02;;
15110;SDS011;7656;51.954;7.998;2023-07-29T09:18:08;1.17;;;1.17;;
15110;SDS011;7656;51.954;7.998;2023-07-29T09:22:31;1.08;;;1.08;;
15110;SDS011;7656;51.954;7.998;2023-07-29T09:26:52;0.70;;;0.70;;
15110;SDS011;7656;51.954;7.998;2023-07-29T09:31:19;0.88;;;0.88;;
15110;SDS011;7656;51.954;7.998;2023-07-29T09:35:44;1.17;;;1.08;;
15110;SDS011;7656;51.954;7.998;2023-07-29T09:40:06;0.98;;;0.98;;
15110;SDS011;7656;51.954;7.998;2023-07-29T09:44:37;0.93;;;0.93;;
15110;SDS011;7656;51.954;7.998;2023-07-29T09:48:58;0.80;;;0.80;;
15110;SDS011;7656;51.954;7.998;2023-07-29T09:53:20;0.80;;;0.80;;
15110;SDS011;7656;51.954;7.998;2023-07-29T09:57:42;1.20;;;1.10;;
15110;SDS011;7656;51.954;7.998;2023-07-29T10:02:04;0.77;;;0.77;;
15110;SDS011;7656;51.954;7.998;2023-07-29T10:06:25;0.60;;;0.60;;
15110;SDS011;7656;51.954;7.998;2023-07-29T10:10:48;1.40;;;1.30;;
15110;SDS011;7656;51.954;7.998;2023-07-29T10:15:11;0.70;;;0.70;;
15110;SDS011;7656;51.954;7.998;2023-07-29T10:19:32;0.98;;;0.98;;
15110;SDS011;7656;51.954;7.998;2023-07-29T10:23:54;0.90;;;0.90;;
15110;SDS011;7656;51.954;7.998;2023-07-29T10:28:21;0.75;;;0.75;;
15110;SDS011;7656;51.954;7.998;2023-07-29T10:32:47;0.85;;;0.85;;
15110;SDS011;7656;51.954;7.998;2023-07-29T10:37:09;1.10;;;1.10;;
15110;SDS011;7656;51.954;7.998;2023-07-29T10:46:22;0.77;;;0.77;;
15110;SDS011;7656;51.954;7.998;2023-07-29T10:50:44;0.90;;;0.90;;
15110;SDS011;7656;51.954;7.998;2023-07-29T10:55:16;0.95;;;0.95;;
15110;SDS011;7656;51.954;7.998;2023-07-29T10:59:54;0.82;;;0.82;;
15110;SDS011;7656;51.954;7.998;2023-07-29T11:08:40;1.88;;;1.15;;
15110;SDS011;7656;51.954;7.998;2023-07-29T11:13:01;1.00;;;1.00;;
15110;SDS011;7656;51.954;7.998;2023-07-29T11:17:23;1.30;;;0.88;;
15110;SDS011;7656;51.954;7.998;2023-07-29T11:21:44;1.10;;;1.10;;
15110;SDS011;7656;51.954;7.998;2023-07-29T11:26:05;1.10;;;1.10;;
15110;SDS011;7656;51.954;7.998;2023-07-29T11:30:26;1.40;;;1.30;;
15110;SDS011;7656;51.954;7.998;2023-07-29T11:34:48;1.73;;;1.02;;
15110;SDS011;7656;51.954;7.998;2023-07-29T11:39:09;1.00;;;0.95;;
15110;SDS011;7656;51.954;7.998;2023-07-29T11:43:34;1.58;;;1.00;;
15110;SDS011;7656;51.954;7.998;2023-07-29T11:47:56;1.00;;;1.00;;
15110;SDS011;7656;51.954;7.998;2023-07-29T11:52:18;1.65;;;1.23;;
15110;SDS011;7656;51.954;7.998;2023-07-29T11:56:40;1.23;;;0.88;;
15110;SDS011;7656;51.954;7.998;2023-07-29T12:01:01;1.30;;;1.20;;
15110;SDS011;7656;51.954;7.998;2023-07-29T12:05:24;1.00;;;1.00;;
15110;SDS011;7656;51.954;7.998;2023-07-29T12:09:46;1.67;;;0.90;;
15110;SDS011;7656;51.954;7.998;2023-07-29T12:14:08;0.75;;;0.75;;
15110;SDS011;7656;51.954;7.998;2023-07-29T12:18:29;2.67;;;1.02;;
15110;SDS011;7656;51.954;7.998;2023-07-29T12:22:56;2.90;;;1.20;;
15110;SDS011;7656;51.954;7.998;2023-07-29T12:27:19;1.20;;;1.20;;
15110;SDS011;7656;51.954;7.998;2023-07-29T12:31:43;1.10;;;1.10;;
15110;SDS011;7656;51.954;7.998;2023-07-29T12:36:04;1.77;;;1.30;;
15110;SDS011;7656;51.954;7.998;2023-07-29T12:40:25;1.10;;;1.00;;
15110;SDS011;7656;51.954;7.998;2023-07-29T12:44:47;4.05;;;1.30;;
15110;SDS011;7656;51.954;7.998;2023-07-29T12:49:08;1.95;;;1.25;;
15110;SDS011;7656;51.954;7.998;2023-07-29T12:53:30;1.15;;;1.05;;
15110;SDS011;7656;51.954;7.998;2023-07-29T12:57:51;1.15;;;1.15;;
15110;SDS011;7656;51.954;7.998;2023-07-29T13:02:12;1.38;;;1.30;;
15110;SDS011;7656;51.954;7.998;2023-07-29T13:06:33;1.00;;;1.00;;
15110;SDS011;7656;51.954;7.998;2023-07-29T13:10:54;1.25;;;1.25;;
15110;SDS011;7656;51.954;7.998;2023-07-29T13:15:15;1.30;;;1.20;;
15110;SDS011;7656;51.954;7.998;2023-07-29T13:19:36;1.85;;;1.75;;
15110;SDS011;7656;51.954;7.998;2023-07-29T13:23:57;1.40;;;1.30;;
15110;SDS011;7656;51.954;7.998;2023-07-29T13:28:18;1.17;;;1.15;;
15110;SDS011;7656;51.954;7.998;2023-07-29T13:32:39;1.42;;;1.40;;
15110;SDS011;7656;51.954;7.998;2023-07-29T13:37:00;1.20;;;1.20;;
15110;SDS011;7656;51.954;7.998;2023-07-29T13:41:22;1.58;;;1.20;;
15110;SDS011;7656;51.954;7.998;2023-07-29T13:45:43;2.58;;;1.13;;
15110;SDS011;7656;51.954;7.998;2023-07-29T13:50:04;1.10;;;1.10;;
15110;SDS011;7656;51.954;7.998;2023-07-29T13:54:28;1.80;;;1.67;;
15110;SDS011;7656;51.954;7.998;2023-07-29T13:58:49;1.98;;;1.88;;
15110;SDS011;7656;51.954;7.998;2023-07-29T14:03:10;1.63;;;1.52;;
15110;SDS011;7656;51.954;7.998;2023-07-29T14:07:31;2.20;;;1.83;;
15110;SDS011;7656;51.954;7.998;2023-07-29T14:11:53;1.85;;;1.75;;
15110;SDS011;7656;51.954;7.998;2023-07-29T14:16:15;2.67;;;1.80;;
15110;SDS011;7656;51.954;7.998;2023-07-29T14:20:36;7.32;;;2.03;;
15110;SDS011;7656;51.954;7.998;2023-07-29T14:24:57;2.05;;;1.95;;
15110;SDS011;7656;51.954;7.998;2023-07-29T14:29:18;2.45;;;2.25;;
15110;SDS011;7656;51.954;7.998;2023-07-29T14:33:39;2.22;;;2.13;;
15110;SDS011;7656;51.954;7.998;2023-07-29T14:38:00;2.75;;;2.55;;
15110;SDS011;7656;51.954;7.998;2023-07-29T14:42:21;2.80;;;2.60;;
15110;SDS011;7656;51.954;7.998;2023-07-29T14:46:42;2.50;;;2.30;;
15110;SDS011;7656;51.954;7.998;2023-07-29T14:51:03;2.88;;;2.10;;
15110;SDS011;7656;51.954;7.998;2023-07-29T14:55:24;2.40;;;2.20;;
15110;SDS011;7656;51.954;7.998;2023-07-29T14:59:45;2.70;;;1.67;;
15110;SDS011;7656;51.954;7.998;2023-07-29T15:04:06;1.60;;;1.50;;
15110;SDS011;7656;51.954;7.998;2023-07-29T15:08:27;1.20;;;1.10;;
15110;SDS011;7656;51.954;7.998;2023-07-29T15:12:48;1.67;;;1.13;;
15110;SDS011;7656;51.954;7.998;2023-07-29T15:17:10;1.50;;;1.20;;
15110;SDS011;7656;51.954;7.998;2023-07-29T15:21:31;1.38;;;1.27;;
15110;SDS011;7656;51.954;7.998;2023-07-29T15:25:55;0.80;;;0.80;;
15110;SDS011;7656;51.954;7.998;2023-07-29T15:30:16;1.67;;;0.90;;
15110;SDS011;7656;51.954;7.998;2023-07-29T15:34:38;0.85;;;0.80;;
15110;SDS011;7656;51.954;7.998;2023-07-29T15:38:59;1.20;;;0.82;;
15110;SDS011;7656;51.954;7.998;2023-07-29T15:43:20;1.38;;;0.77;;
15110;SDS011;7656;51.954;7.998;2023-07-29T15:47:41;1.17;;;0.90;;
15110;SDS011;7656;51.954;7.998;2023-07-29T15:52:02;0.80;;;0.70;;
15110;SDS011;7656;51.954;7.998;2023-07-29T15:56:24;0.63;;;0.63;;
15110;SDS011;7656;51.954;7.998;2023-07-29T16:00:47;1.10;;;1.10;;
15110;SDS011;7656;51.954;7.998;2023-07-29T16:05:08;0.98;;;0.68;;
15110;SDS011;7656;51.954;7.998;2023-07-29T16:09:29;1.13;;;0.93;;
15110;SDS011;7656;51.954;7.998;2023-07-29T16:13:50;0.82;;;0.82;;
15110;SDS011;7656;51.954;7.998;2023-07-29T16:18:12;1.38;;;1.00;;
15110;SDS011;7656;51.954;7.998;2023-07-29T16:22:33;0.60;;;0.60;;
15110;SDS011;7656;51.954;7.998;2023-07-29T16:26:54;4.43;;;1.25;;
15110;SDS011;7656;51.954;7.998;2023-07-29T16:31:15;1.33;;;0.90;;
15110;SDS011;7656;51.954;7.998;2023-07-29T16:35:39;1.50;;;1.13;;
15110;SDS011;7656;51.954;7.998;2023-07-29T16:40:00;1.30;;;1.20;;
15110;SDS011;7656;51.954;7.998;2023-07-29T16:44:22;1.30;;;0.90;;
15110;SDS011;7656;51.954;7.998;2023-07-29T16:48:43;1.35;;;1.17;;
15110;SDS011;7656;51.954;7.998;2023-07-29T16:53:04;1.90;;;1.10;;
15110;SDS011;7656;51.954;7.998;2023-07-29T16:57:25;1.50;;;1.15;;
15110;SDS011;7656;51.954;7.998;2023-07-29T17:01:47;1.30;;;1.23;;
15110;SDS011;7656;51.954;7.998;2023-07-29T17:06:09;1.08;;;1.00;;
15110;SDS011;7656;51.954;7.998;2023-07-29T17:10:30;0.95;;;0.95;;
15110;SDS011;7656;51.954;7.998;2023-07-29T17:14:51;1.25;;;1.15;;
15110;SDS011;7656;51.954;7.998;2023-07-29T17:19:12;1.90;;;1.42;;
15110;SDS011;7656;51.954;7.998;2023-07-29T17:23:33;2.15;;;1.48;;
15110;SDS011;7656;51.954;7.998;2023-07-29T17:27:54;2.65;;;1.50;;
15110;SDS011;7656;51.954;7.998;2023-07-29T17:32:15;2.60;;;1.45;;
15110;SDS011;7656;51.954;7.998;2023-07-29T17:36:37;1.52;;;1.30;;
15110;SDS011;7656;51.954;7.998;2023-07-29T17:40:59;1.48;;;1.30;;
15110;SDS011;7656;51.954;7.998;2023-07-29T17:45:21;1.40;;;1.30;;
15110;SDS011;7656;51.954;7.998;2023-07-29T17:49:42;2.15;;;1.38;;
15110;SDS011;7656;51.954;7.998;2023-07-29T17:54:03;1.45;;;1.35;;
15110;SDS011;7656;51.954;7.998;2023-07-29T17:58:24;2.25;;;1.85;;
15110;SDS011;7656;51.954;7.998;2023-07-29T18:02:45;2.88;;;1.45;;
15110;SDS011;7656;51.954;7.998;2023-07-29T18:07:06;2.10;;;1.48;;
15110;SDS011;7656;51.954;7.998;2023-07-29T18:11:27;1.67;;;1.58;;
15110;SDS011;7656;51.954;7.998;2023-07-29T18:15:51;2.10;;;1.63;;
15110;SDS011;7656;51.954;7.998;2023-07-29T18:20:13;9.80;;;1.67;;
15110;SDS011;7656;51.954;7.998;2023-07-29T18:24:34;3.08;;;1.58;;
15110;SDS011;7656;51.954;7.998;2023-07-29T18:28:55;1.65;;;1.55;;
15110;SDS011;7656;51.954;7.998;2023-07-29T18:33:17;2.75;;;1.52;;
15110;SDS011;7656;51.954;7.998;2023-07-29T18:37:38;1.73;;;1.63;;
15110;SDS011;7656;51.954;7.998;2023-07-29T18:41:59;1.60;;;1.50;;
15110;SDS011;7656;51.954;7.998;2023-07-29T18:46:20;1.98;;;1.52;;
15110;SDS011;7656;51.954;7.998;2023-07-29T18:50:42;3.08;;;1.67;;
15110;SDS011;7656;51.954;7.998;2023-07-29T18:55:04;2.30;;;1.77;;
15110;SDS011;7656;51.954;7.998;2023-07-29T18:59:25;1.88;;;1.77;;
15110;SDS011;7656;51.954;7.998;2023-07-29T19:03:46;3.08;;;2.17;;
15110;SDS011;7656;51.954;7.998;2023-07-29T19:08:08;2.58;;;2.38;;
15110;SDS011;7656;51.954;7.998;2023-07-29T19:12:31;2.63;;;2.40;;
15110;SDS011;7656;51.954;7.998;2023-07-29T19:16:53;2.10;;;1.80;;
15110;SDS011;7656;51.954;7.998;2023-07-29T19:21:14;4.10;;;2.35;;
15110;SDS011;7656;51.954;7.998;2023-07-29T19:25:43;3.22;;;2.30;;
15110;SDS011;7656;51.954;7.998;2023-07-29T19:30:08;5.25;;;2.10;;
15110;SDS011;7656;51.954;7.998;2023-07-29T19:34:30;2.00;;;1.90;;
15110;SDS011;7656;51.954;7.998;2023-07-29T19:38:51;6.47;;;2.42;;
15110;SDS011;7656;51.954;7.998;2023-07-29T19:43:12;4.95;;;3.10;;
15110;SDS011;7656;51.954;7.998;2023-07-29T19:47:33;14.98;;;11.10;;
15110;SDS011;7656;51.954;7.998;2023-07-29T19:51:54;11.77;;;7.20;;
15110;SDS011;7656;51.954;7.998;2023-07-29T19:56:21;3.15;;;2.28;;
15110;SDS011;7656;51.954;7.998;2023-07-29T20:00:42;3.17;;;2.55;;
15110;SDS011;7656;51.954;7.998;2023-07-29T20:05:03;3.22;;;2.40;;
15110;SDS011;7656;51.954;7.998;2023-07-29T20:09:24;2.83;;;2.63;;
15110;SDS011;7656;51.954;7.998;2023-07-29T20:13:45;2.93;;;2.67;;
15110;SDS011;7656;51.954;7.998;2023-07-29T20:18:06;4.53;;;2.83;;
15110;SDS011;7656;51.954;7.998;2023-07-29T20:22:27;3.30;;;3.00;;
15110;SDS011;7656;51.954;7.998;2023-07-29T20:26:48;3.93;;;2.70;;
15110;SDS011;7656;51.954;7.998;2023-07-29T20:31:10;5.43;;;3.13;;
15110;SDS011;7656;51.954;7.998;2023-07-29T20:35:31;3.17;;;2.70;;
15110;SDS011;7656;51.954;7.998;2023-07-29T20:39:52;3.10;;;2.80;;
15110;SDS011;7656;51.954;7.998;2023-07-29T20:44:13;3.20;;;2.90;;
15110;SDS011;7656;51.954;7.998;2023-07-29T20:48:34;3.50;;;3.20;;
15110;SDS011;7656;51.954;7.998;2023-07-29T20:52:55;5.10;;;3.20;;
15110;SDS011;7656;51.954;7.998;2023-07-29T20:57:16;4.07;;;3.13;;
15110;SDS011;7656;51.954;7.998;2023-07-29T21:01:37;4.43;;;3.23;;
15110;SDS011;7656;51.954;7.998;2023-07-29T21:05:59;2.90;;;2.70;;
15110;SDS011;7656;51.954;7.998;2023-07-29T21:10:20;3.40;;;3.13;;
15110;SDS011;7656;51.954;7.998;2023-07-29T21:14:41;5.17;;;3.33;;
15110;SDS011;7656;51.954;7.998;2023-07-29T21:19:02;4.80;;;3.80;;
15110;SDS011;7656;51.954;7.998;2023-07-29T21:23:23;8.40;;;3.87;;
15110;SDS011;7656;51.954;7.998;2023-07-29T21:27:44;3.43;;;3.13;;
15110;SDS011;7656;51.954;7.998;2023-07-29T21:32:06;4.60;;;3.40;;
15110;SDS011;7656;51.954;7.998;2023-07-29T21:36:27;5.93;;;3.60;;
15110;SDS011;7656;51.954;7.998;2023-07-29T21:40:48;4.20;;;3.57;;
15110;SDS011;7656;51.954;7.998;2023-07-29T21:45:10;3.77;;;3.47;;
15110;SDS011;7656;51.954;7.998;2023-07-29T21:49:31;4.37;;;3.37;;
15110;SDS011;7656;51.954;7.998;2023-07-29T21:53:52;3.70;;;3.40;;
15110;SDS011;7656;51.954;7.998;2023-07-29T21:58:13;3.10;;;2.80;;
15110;SDS011;7656;51.954;7.998;2023-07-29T22:02:34;3.97;;;3.17;;
15110;SDS011;7656;51.954;7.998;2023-07-29T22:06:55;3.27;;;2.87;;
15110;SDS011;7656;51.954;7.998;2023-07-29T22:11:17;5.83;;;2.60;;
15110;SDS011;7656;51.954;7.998;2023-07-29T22:15:38;2.70;;;2.50;;
15110;SDS011;7656;51.954;7.998;2023-07-29T22:19:59;2.57;;;2.37;;
15110;SDS011;7656;51.954;7.998;2023-07-29T22:24:20;2.60;;;2.40;;
15110;SDS011;7656;51.954;7.998;2023-07-29T22:28:41;2.63;;;2.40;;
15110;SDS011;7656;51.954;7.998;2023-07-29T22:33:02;2.33;;;2.13;;
15110;SDS011;7656;51.954;7.998;2023-07-29T22:37:23;3.13;;;2.80;;
15110;SDS011;7656;51.954;7.998;2023-07-29T22:41:44;6.63;;;2.90;;
15110;SDS011;7656;51.954;7.998;2023-07-29T22:46:05;5.07;;;3.20;;
15110;SDS011;7656;51.954;7.998;2023-07-29T22:50:27;4.30;;;3.20;;
15110;SDS011;7656;51.954;7.998;2023-07-29T22:54:49;3.50;;;2.53;;
15110;SDS011;7656;51.954;7.998;2023-07-29T22:59:10;5.20;;;2.80;;
15110;SDS011;7656;51.954;7.998;2023-07-29T23:03:31;3.67;;;2.90;;
15110;SDS011;7656;51.954;7.998;2023-07-29T23:07:52;4.10;;;2.73;;
15110;SDS011;7656;51.954;7.998;2023-07-29T23:12:13;4.40;;;3.13;;
15110;SDS011;7656;51.954;7.998;2023-07-29T23:16:34;5.17;;;3.20;;
15110;SDS011;7656;51.954;7.998;2023-07-29T23:20:55;3.70;;;2.60;;
15110;SDS011;7656;51.954;7.998;2023-07-29T23:25:16;3.73;;;3.17;;
15110;SDS011;7656;51.954;7.998;2023-07-29T23:29:37;3.30;;;3.00;;
15110;SDS011;7656;51.954;7.998;2023-07-29T23:33:58;3.20;;;2.90;;
15110;SDS011;7656;51.954;7.998;2023-07-29T23:38:20;3.00;;;2.50;;
15110;SDS011;7656;51.954;7.998;2023-07-29T23:42:42;4.13;;;3.00;;
15110;SDS011;7656;51.954;7.998;2023-07-29T23:47:03;3.67;;;3.27;;
15110;SDS011;7656;51.954;7.998;2023-07-29T23:51:24;3.37;;;3.07;;
15110;SDS011;7656;51.954;7.998;2023-07-29T23:55:45;4.13;;;3.03;;
